RUK1FN EGCC-EGAE
Flight info
| Callsign | RUK1FN |
|---|---|
| Flight time | 0h 48m |
| Altitude | 24000 |
| Route | ASMIM L975 WAL M146 IPSET P6 BELZU |
| Aircraft | B738/M-SDE2E3FGHIRWXY/LB1 |
Departure
| Time | 2026-04-26 00:17 |
|---|---|
| Airport | Manchester Airport (EGCC) |
Arrival
| Time | 2026-04-26 01:05 |
|---|---|
| Airport | City of Derry Airport (EGAE) |
| Time | Latitude | Longitude | Altitude | Speed | Heading |
|---|---|---|---|---|---|
| 2026-04-26 00:07 | 53.36158 | -2.26681 | 247 ft | 0 kts | 326° |
| 2026-04-26 00:08 | 53.36146 | -2.26669 | 247 ft | 4 kts | 326° |
| 2026-04-26 00:08 | 53.36124 | -2.26645 | 247 ft | 4 kts | 326° |
| 2026-04-26 00:09 | 53.36105 | -2.26623 | 247 ft | 4 kts | 313° |
| 2026-04-26 00:09 | 53.36096 | -2.26589 | 247 ft | 4 kts | 255° |
| 2026-04-26 00:09 | 53.36108 | -2.26551 | 247 ft | 4 kts | 231° |
| 2026-04-26 00:09 | 53.36124 | -2.26518 | 247 ft | 4 kts | 231° |
| 2026-04-26 00:10 | 53.36138 | -2.26488 | 247 ft | 1 kts | 231° |
| 2026-04-26 00:12 | 53.36134 | -2.26497 | 247 ft | 5 kts | 231° |
| 2026-04-26 00:12 | 53.36089 | -2.26582 | 247 ft | 14 kts | 214° |
| 2026-04-26 00:13 | 53.35997 | -2.26621 | 253 ft | 14 kts | 222° |
| 2026-04-26 00:13 | 53.35924 | -2.26774 | 253 ft | 20 kts | 237° |
| 2026-04-26 00:13 | 53.35833 | -2.26987 | 252 ft | 25 kts | 240° |
| 2026-04-26 00:13 | 53.35724 | -2.27238 | 252 ft | 27 kts | 230° |
| 2026-04-26 00:14 | 53.35610 | -2.27470 | 252 ft | 25 kts | 231° |
| 2026-04-26 00:14 | 53.35500 | -2.27699 | 247 ft | 25 kts | 231° |
| 2026-04-26 00:14 | 53.35446 | -2.27930 | 244 ft | 21 kts | 239° |
| 2026-04-26 00:14 | 53.35334 | -2.28115 | 239 ft | 24 kts | 223° |
| 2026-04-26 00:15 | 53.35210 | -2.28347 | 232 ft | 26 kts | 231° |
| 2026-04-26 00:15 | 53.35093 | -2.28588 | 231 ft | 26 kts | 231° |
| 2026-04-26 00:15 | 53.34983 | -2.28747 | 230 ft | 13 kts | 171° |
| 2026-04-26 00:15 | 53.34908 | -2.28664 | 232 ft | 13 kts | 142° |
| 2026-04-26 00:16 | 53.34869 | -2.28551 | 233 ft | 13 kts | 66° |
| 2026-04-26 00:16 | 53.35009 | -2.28256 | 238 ft | 67 kts | 51° |
| 2026-04-26 00:16 | 53.35448 | -2.27345 | 260 ft | 132 kts | 51° |
| 2026-04-26 00:16 | 53.36109 | -2.25937 | 547 ft | 161 kts | 52° |
| 2026-04-26 00:17 | 53.36785 | -2.24466 | 1399 ft | 159 kts | 53° |
| 2026-04-26 00:17 | 53.37491 | -2.22982 | 2043 ft | 173 kts | 51° |
| 2026-04-26 00:17 | 53.38403 | -2.21403 | 2348 ft | 203 kts | 34° |
| 2026-04-26 00:17 | 53.39794 | -2.20820 | 2818 ft | 217 kts | 353° |
| 2026-04-26 00:18 | 53.41126 | -2.21987 | 3408 ft | 225 kts | 309° |
| 2026-04-26 00:18 | 53.41898 | -2.24377 | 3831 ft | 247 kts | 294° |
| 2026-04-26 00:18 | 53.42641 | -2.27110 | 4339 ft | 263 kts | 295° |
| 2026-04-26 00:18 | 53.43440 | -2.29902 | 5191 ft | 267 kts | 296° |
| 2026-04-26 00:19 | 53.44271 | -2.32700 | 6017 ft | 270 kts | 296° |
| 2026-04-26 00:19 | 53.45123 | -2.35541 | 6838 ft | 274 kts | 296° |
| 2026-04-26 00:19 | 53.45987 | -2.38386 | 7720 ft | 274 kts | 296° |
| 2026-04-26 00:19 | 53.46807 | -2.41289 | 8526 ft | 277 kts | 286° |
| 2026-04-26 00:20 | 53.46926 | -2.44511 | 9292 ft | 280 kts | 263° |
| 2026-04-26 00:20 | 53.46596 | -2.47746 | 10063 ft | 283 kts | 259° |
| 2026-04-26 00:20 | 53.46211 | -2.51024 | 10697 ft | 293 kts | 259° |
| 2026-04-26 00:20 | 53.45804 | -2.54519 | 10885 ft | 318 kts | 259° |
| 2026-04-26 00:21 | 53.45380 | -2.58263 | 11299 ft | 332 kts | 259° |
| 2026-04-26 00:21 | 53.44953 | -2.62098 | 11976 ft | 337 kts | 259° |
| 2026-04-26 00:21 | 53.44523 | -2.65976 | 12753 ft | 339 kts | 259° |
| 2026-04-26 00:21 | 53.44091 | -2.69888 | 13547 ft | 342 kts | 259° |
| 2026-04-26 00:22 | 53.43654 | -2.73830 | 14308 ft | 345 kts | 259° |
| 2026-04-26 00:22 | 53.43213 | -2.77799 | 15091 ft | 348 kts | 259° |
| 2026-04-26 00:22 | 53.42767 | -2.81808 | 15857 ft | 351 kts | 259° |
| 2026-04-26 00:22 | 53.42315 | -2.85848 | 16618 ft | 354 kts | 259° |
| 2026-04-26 00:23 | 53.41859 | -2.89913 | 17349 ft | 357 kts | 259° |
| 2026-04-26 00:23 | 53.41398 | -2.94020 | 18054 ft | 360 kts | 259° |
| 2026-04-26 00:23 | 53.40932 | -2.98170 | 18752 ft | 363 kts | 259° |
| 2026-04-26 00:23 | 53.40462 | -3.02320 | 19574 ft | 361 kts | 259° |
| 2026-04-26 00:24 | 53.39997 | -3.06419 | 20529 ft | 355 kts | 259° |
| 2026-04-26 00:24 | 53.39793 | -3.10503 | 21348 ft | 353 kts | 276° |
| 2026-04-26 00:24 | 53.40436 | -3.14457 | 22076 ft | 353 kts | 293° |
| 2026-04-26 00:24 | 53.41760 | -3.17945 | 22601 ft | 359 kts | 310° |
| 2026-04-26 00:25 | 53.43480 | -3.20978 | 23128 ft | 359 kts | 313° |
| 2026-04-26 00:25 | 53.45254 | -3.23940 | 23492 ft | 361 kts | 313° |
| 2026-04-26 00:25 | 53.47032 | -3.26893 | 23735 ft | 358 kts | 313° |
| 2026-04-26 00:25 | 53.48781 | -3.29826 | 23968 ft | 353 kts | 312° |
| 2026-04-26 00:26 | 53.50506 | -3.32753 | 24209 ft | 353 kts | 312° |
| 2026-04-26 00:26 | 53.52239 | -3.35718 | 24245 ft | 357 kts | 312° |
| 2026-04-26 00:26 | 53.53968 | -3.38688 | 24255 ft | 354 kts | 312° |
| 2026-04-26 00:26 | 53.55687 | -3.41648 | 24257 ft | 354 kts | 312° |
| 2026-04-26 00:27 | 53.57408 | -3.44624 | 24267 ft | 355 kts | 311° |
| 2026-04-26 00:27 | 53.58983 | -3.47807 | 24261 ft | 354 kts | 304° |
| 2026-04-26 00:27 | 53.60399 | -3.51197 | 24266 ft | 354 kts | 302° |
| 2026-04-26 00:27 | 53.61792 | -3.54618 | 24263 ft | 355 kts | 303° |
| 2026-04-26 00:28 | 53.63206 | -3.58029 | 24259 ft | 355 kts | 303° |
| 2026-04-26 00:28 | 53.64631 | -3.61424 | 24259 ft | 355 kts | 303° |
| 2026-04-26 00:28 | 53.66061 | -3.64828 | 24258 ft | 355 kts | 303° |
| 2026-04-26 00:28 | 53.67485 | -3.68233 | 24256 ft | 355 kts | 303° |
| 2026-04-26 00:29 | 53.68907 | -3.71641 | 24251 ft | 355 kts | 303° |
| 2026-04-26 00:29 | 53.70309 | -3.75010 | 24248 ft | 355 kts | 303° |
| 2026-04-26 00:29 | 53.71726 | -3.78418 | 24249 ft | 355 kts | 303° |
| 2026-04-26 00:29 | 53.73140 | -3.81822 | 24246 ft | 354 kts | 303° |
| 2026-04-26 00:30 | 53.74553 | -3.85228 | 24249 ft | 354 kts | 303° |
| 2026-04-26 00:30 | 53.75963 | -3.88631 | 24248 ft | 354 kts | 303° |
| 2026-04-26 00:30 | 53.77373 | -3.92039 | 24249 ft | 353 kts | 303° |
| 2026-04-26 00:30 | 53.78780 | -3.95446 | 24248 ft | 353 kts | 303° |
| 2026-04-26 00:31 | 53.80182 | -3.98845 | 24249 ft | 353 kts | 303° |
| 2026-04-26 00:31 | 53.81588 | -4.02255 | 24248 ft | 353 kts | 303° |
| 2026-04-26 00:31 | 53.82990 | -4.05665 | 24243 ft | 353 kts | 302° |
| 2026-04-26 00:31 | 53.84394 | -4.09078 | 24243 ft | 353 kts | 302° |
| 2026-04-26 00:32 | 53.85796 | -4.12492 | 24240 ft | 353 kts | 302° |
| 2026-04-26 00:32 | 53.87197 | -4.15912 | 24244 ft | 353 kts | 302° |
| 2026-04-26 00:32 | 53.90015 | -4.22741 | 24239 ft | 354 kts | 303° |
| 2026-04-26 00:33 | 53.91430 | -4.26160 | 24240 ft | 354 kts | 303° |
| 2026-04-26 00:33 | 53.92840 | -4.29577 | 24240 ft | 354 kts | 303° |
| 2026-04-26 00:33 | 53.94252 | -4.33006 | 24240 ft | 354 kts | 302° |
| 2026-04-26 00:33 | 53.95647 | -4.36454 | 24239 ft | 354 kts | 302° |
| 2026-04-26 00:34 | 53.97035 | -4.39911 | 24241 ft | 354 kts | 302° |
| 2026-04-26 00:34 | 53.98420 | -4.43364 | 24239 ft | 354 kts | 302° |
| 2026-04-26 00:34 | 53.99806 | -4.46819 | 24240 ft | 354 kts | 302° |
| 2026-04-26 00:34 | 54.01194 | -4.50281 | 24241 ft | 354 kts | 302° |
| 2026-04-26 00:35 | 54.02677 | -4.53626 | 24239 ft | 356 kts | 308° |
| 2026-04-26 00:35 | 54.04329 | -4.56767 | 24245 ft | 356 kts | 310° |
| 2026-04-26 00:35 | 54.06017 | -4.59847 | 24241 ft | 356 kts | 310° |
| 2026-04-26 00:35 | 54.07713 | -4.62922 | 24239 ft | 356 kts | 310° |
| 2026-04-26 00:36 | 54.09407 | -4.66008 | 24236 ft | 356 kts | 310° |
| 2026-04-26 00:36 | 54.11093 | -4.69104 | 24244 ft | 356 kts | 310° |
| 2026-04-26 00:36 | 54.12774 | -4.72214 | 24243 ft | 357 kts | 310° |
| 2026-04-26 00:36 | 54.14448 | -4.75329 | 24239 ft | 357 kts | 309° |
| 2026-04-26 00:37 | 54.16102 | -4.78417 | 24234 ft | 357 kts | 309° |
| 2026-04-26 00:37 | 54.17778 | -4.81553 | 24237 ft | 357 kts | 309° |
| 2026-04-26 00:37 | 54.19449 | -4.84687 | 24239 ft | 357 kts | 309° |
| 2026-04-26 00:37 | 54.21142 | -4.87865 | 24238 ft | 357 kts | 309° |
| 2026-04-26 00:38 | 54.22790 | -4.90963 | 24242 ft | 357 kts | 309° |
| 2026-04-26 00:38 | 54.24463 | -4.94113 | 24238 ft | 358 kts | 309° |
| 2026-04-26 00:38 | 54.26133 | -4.97259 | 24239 ft | 358 kts | 309° |
| 2026-04-26 00:38 | 54.27806 | -5.00417 | 24242 ft | 358 kts | 309° |
| 2026-04-26 00:39 | 54.29476 | -5.03573 | 24242 ft | 358 kts | 309° |
| 2026-04-26 00:39 | 54.31148 | -5.06738 | 24239 ft | 359 kts | 309° |
| 2026-04-26 00:39 | 54.32815 | -5.09896 | 24219 ft | 353 kts | 309° |
| 2026-04-26 00:39 | 54.34445 | -5.12985 | 24022 ft | 347 kts | 309° |
| 2026-04-26 00:40 | 54.36052 | -5.16036 | 23799 ft | 343 kts | 309° |
| 2026-04-26 00:40 | 54.37646 | -5.19069 | 23460 ft | 342 kts | 308° |
| 2026-04-26 00:40 | 54.39231 | -5.22090 | 23135 ft | 339 kts | 309° |
| 2026-04-26 00:40 | 54.40804 | -5.25091 | 22802 ft | 337 kts | 309° |
| 2026-04-26 00:41 | 54.42365 | -5.28071 | 22469 ft | 335 kts | 309° |
| 2026-04-26 00:41 | 54.43918 | -5.31040 | 22139 ft | 333 kts | 309° |
| 2026-04-26 00:41 | 54.45461 | -5.33988 | 21805 ft | 331 kts | 309° |
| 2026-04-26 00:41 | 54.47051 | -5.36854 | 21467 ft | 330 kts | 311° |
| 2026-04-26 00:42 | 54.48654 | -5.39662 | 21133 ft | 328 kts | 311° |
| 2026-04-26 00:42 | 54.50249 | -5.42466 | 20799 ft | 327 kts | 310° |
| 2026-04-26 00:42 | 54.51621 | -5.45534 | 20462 ft | 322 kts | 298° |
| 2026-04-26 00:42 | 54.52567 | -5.48977 | 20133 ft | 317 kts | 287° |
| 2026-04-26 00:43 | 54.53255 | -5.52568 | 19821 ft | 315 kts | 285° |
| 2026-04-26 00:43 | 54.53909 | -5.56156 | 19487 ft | 314 kts | 285° |
| 2026-04-26 00:43 | 54.54557 | -5.59736 | 19160 ft | 312 kts | 285° |
| 2026-04-26 00:43 | 54.55204 | -5.63291 | 18836 ft | 311 kts | 285° |
| 2026-04-26 00:44 | 54.55850 | -5.66830 | 18513 ft | 309 kts | 285° |
| 2026-04-26 00:44 | 54.56497 | -5.70353 | 18195 ft | 307 kts | 285° |
| 2026-04-26 00:44 | 54.57141 | -5.73853 | 17878 ft | 306 kts | 286° |
| 2026-04-26 00:44 | 54.57774 | -5.77295 | 17564 ft | 304 kts | 286° |
| 2026-04-26 00:45 | 54.58411 | -5.80761 | 17249 ft | 303 kts | 285° |
| 2026-04-26 00:45 | 54.58839 | -5.83090 | 17036 ft | 302 kts | 285° |
| 2026-04-26 00:45 | 54.59677 | -5.87655 | 16626 ft | 300 kts | 285° |
| 2026-04-26 00:45 | 54.60305 | -5.91082 | 16312 ft | 299 kts | 285° |
| 2026-04-26 00:46 | 54.60930 | -5.94495 | 16001 ft | 298 kts | 285° |
| 2026-04-26 00:46 | 54.61551 | -5.97892 | 15697 ft | 296 kts | 285° |
| 2026-04-26 00:46 | 54.61968 | -6.00181 | 15484 ft | 296 kts | 285° |
| 2026-04-26 00:46 | 54.62583 | -6.03555 | 15175 ft | 295 kts | 285° |
| 2026-04-26 00:47 | 54.63196 | -6.06929 | 14856 ft | 294 kts | 285° |
| 2026-04-26 00:47 | 54.63805 | -6.10290 | 14554 ft | 293 kts | 285° |
| 2026-04-26 00:47 | 54.64413 | -6.13645 | 14243 ft | 292 kts | 284° |
| 2026-04-26 00:47 | 54.65041 | -6.16976 | 13932 ft | 292 kts | 287° |
| 2026-04-26 00:48 | 54.65738 | -6.20217 | 13629 ft | 291 kts | 288° |
| 2026-04-26 00:48 | 54.66460 | -6.23480 | 13328 ft | 290 kts | 288° |
| 2026-04-26 00:48 | 54.67188 | -6.26725 | 13020 ft | 289 kts | 288° |
| 2026-04-26 00:48 | 54.67918 | -6.29961 | 12719 ft | 288 kts | 288° |
| 2026-04-26 00:49 | 54.68650 | -6.33183 | 12419 ft | 288 kts | 288° |
| 2026-04-26 00:49 | 54.69383 | -6.36395 | 12120 ft | 287 kts | 288° |
| 2026-04-26 00:49 | 54.70114 | -6.39590 | 11821 ft | 286 kts | 288° |
| 2026-04-26 00:49 | 54.70844 | -6.42774 | 11529 ft | 285 kts | 288° |
| 2026-04-26 00:50 | 54.71572 | -6.45964 | 11229 ft | 284 kts | 288° |
| 2026-04-26 00:50 | 54.72292 | -6.49136 | 10932 ft | 283 kts | 288° |
| 2026-04-26 00:50 | 54.73007 | -6.52307 | 10641 ft | 282 kts | 288° |
| 2026-04-26 00:50 | 54.73713 | -6.55459 | 10361 ft | 281 kts | 288° |
| 2026-04-26 00:51 | 54.74405 | -6.58563 | 10244 ft | 273 kts | 288° |
| 2026-04-26 00:51 | 54.75086 | -6.61618 | 9970 ft | 271 kts | 288° |
| 2026-04-26 00:51 | 54.75684 | -6.64693 | 9704 ft | 269 kts | 284° |
| 2026-04-26 00:51 | 54.76209 | -6.67796 | 9436 ft | 268 kts | 283° |
| 2026-04-26 00:52 | 54.76718 | -6.70886 | 9168 ft | 266 kts | 283° |
| 2026-04-26 00:52 | 54.77218 | -6.73964 | 8900 ft | 265 kts | 283° |
| 2026-04-26 00:52 | 54.77710 | -6.77032 | 8638 ft | 264 kts | 283° |
| 2026-04-26 00:52 | 54.78198 | -6.80089 | 8372 ft | 263 kts | 283° |
| 2026-04-26 00:53 | 54.78684 | -6.83136 | 8111 ft | 262 kts | 283° |
| 2026-04-26 00:53 | 54.79165 | -6.86174 | 7848 ft | 261 kts | 283° |
| 2026-04-26 00:53 | 54.79643 | -6.89218 | 7485 ft | 264 kts | 283° |
| 2026-04-26 00:53 | 54.80124 | -6.92284 | 7199 ft | 264 kts | 283° |
| 2026-04-26 00:54 | 54.80605 | -6.95360 | 6923 ft | 264 kts | 283° |
| 2026-04-26 00:54 | 54.81084 | -6.98424 | 6658 ft | 263 kts | 283° |
| 2026-04-26 00:54 | 54.81554 | -7.01433 | 6368 ft | 255 kts | 283° |
| 2026-04-26 00:54 | 54.82010 | -7.04357 | 6120 ft | 247 kts | 283° |
| 2026-04-26 00:55 | 54.82454 | -7.07203 | 5878 ft | 241 kts | 283° |
| 2026-04-26 00:55 | 54.82879 | -7.09922 | 5646 ft | 233 kts | 283° |
| 2026-04-26 00:55 | 54.83297 | -7.12583 | 5423 ft | 226 kts | 283° |
| 2026-04-26 00:55 | 54.83706 | -7.15194 | 5211 ft | 224 kts | 283° |
| 2026-04-26 00:56 | 54.84111 | -7.17799 | 5013 ft | 224 kts | 283° |
| 2026-04-26 00:56 | 54.84512 | -7.20391 | 4913 ft | 220 kts | 283° |
| 2026-04-26 00:56 | 54.84905 | -7.22951 | 4827 ft | 220 kts | 283° |
| 2026-04-26 00:56 | 54.85304 | -7.25533 | 4755 ft | 224 kts | 283° |
| 2026-04-26 00:57 | 54.85711 | -7.28172 | 4674 ft | 227 kts | 283° |
| 2026-04-26 00:57 | 54.86111 | -7.30811 | 4579 ft | 225 kts | 283° |
| 2026-04-26 00:57 | 54.86507 | -7.33432 | 4504 ft | 223 kts | 283° |
| 2026-04-26 00:57 | 54.86904 | -7.36026 | 4428 ft | 222 kts | 283° |
| 2026-04-26 00:58 | 54.87302 | -7.38642 | 4182 ft | 222 kts | 283° |
| 2026-04-26 00:58 | 54.87689 | -7.41167 | 3947 ft | 211 kts | 285° |
| 2026-04-26 00:58 | 54.88393 | -7.43343 | 3695 ft | 206 kts | 309° |
| 2026-04-26 00:58 | 54.89305 | -7.45221 | 3459 ft | 202 kts | 308° |
| 2026-04-26 00:59 | 54.90214 | -7.47068 | 3195 ft | 202 kts | 316° |
| 2026-04-26 00:59 | 54.91384 | -7.48398 | 2948 ft | 201 kts | 329° |
| 2026-04-26 00:59 | 54.92632 | -7.49504 | 2692 ft | 202 kts | 343° |
| 2026-04-26 00:59 | 54.94007 | -7.49876 | 2579 ft | 202 kts | 8° |
| 2026-04-26 01:00 | 54.95261 | -7.48920 | 2567 ft | 196 kts | 39° |
| 2026-04-26 01:00 | 54.96355 | -7.47497 | 2553 ft | 197 kts | 37° |
| 2026-04-26 01:00 | 54.97462 | -7.46121 | 2534 ft | 195 kts | 38° |
| 2026-04-26 01:00 | 54.98315 | -7.44359 | 2528 ft | 191 kts | 73° |
| 2026-04-26 01:01 | 54.98698 | -7.42125 | 2547 ft | 197 kts | 69° |
| 2026-04-26 01:01 | 54.99326 | -7.39999 | 2558 ft | 197 kts | 65° |
| 2026-04-26 01:01 | 54.99826 | -7.37831 | 2412 ft | 190 kts | 73° |
| 2026-04-26 01:01 | 55.00252 | -7.35687 | 2182 ft | 186 kts | 72° |
| 2026-04-26 01:02 | 55.00680 | -7.33622 | 1960 ft | 175 kts | 72° |
| 2026-04-26 01:02 | 55.01077 | -7.31720 | 1738 ft | 159 kts | 72° |
| 2026-04-26 01:02 | 55.01438 | -7.30000 | 1550 ft | 145 kts | 72° |
| 2026-04-26 01:02 | 55.01781 | -7.28364 | 1346 ft | 141 kts | 72° |
| 2026-04-26 01:03 | 55.02114 | -7.26773 | 1154 ft | 139 kts | 71° |
| 2026-04-26 01:03 | 55.02447 | -7.25189 | 975 ft | 140 kts | 71° |
| 2026-04-26 01:03 | 55.02783 | -7.23605 | 783 ft | 137 kts | 71° |
| 2026-04-26 01:03 | 55.03182 | -7.22095 | 594 ft | 137 kts | 64° |
| 2026-04-26 01:04 | 55.03514 | -7.20568 | 436 ft | 134 kts | 76° |
| 2026-04-26 01:04 | 55.03782 | -7.19004 | 258 ft | 135 kts | 73° |
| 2026-04-26 01:04 | 55.04057 | -7.17448 | 66 ft | 134 kts | 74° |
| 2026-04-26 01:04 | 55.04308 | -7.16012 | 30 ft | 108 kts | 72° |
| 2026-04-26 01:05 | 55.04424 | -7.15393 | 29 ft | 8 kts | 77° |
| 2026-04-26 01:05 | 55.04410 | -7.15356 | 28 ft | 1 kts | 204° |
| 2026-04-26 01:05 | 55.04407 | -7.15381 | 26 ft | 6 kts | 254° |
| 2026-04-26 01:05 | 55.04387 | -7.15496 | 28 ft | 13 kts | 253° |
| 2026-04-26 01:06 | 55.04362 | -7.15647 | 28 ft | 13 kts | 253° |
| 2026-04-26 01:06 | 55.04337 | -7.15796 | 30 ft | 13 kts | 253° |
| 2026-04-26 01:06 | 55.04303 | -7.15927 | 30 ft | 11 kts | 218° |
| 2026-04-26 01:06 | 55.04237 | -7.15933 | 30 ft | 8 kts | 167° |
| 2026-04-26 01:07 | 55.04181 | -7.15911 | 30 ft | 8 kts | 167° |
| 2026-04-26 01:07 | 55.04127 | -7.15890 | 29 ft | 8 kts | 167° |
| 2026-04-26 01:07 | 55.04078 | -7.15856 | 28 ft | 6 kts | 134° |
| 2026-04-26 01:07 | 55.04074 | -7.15784 | 30 ft | 6 kts | 83° |
| 2026-04-26 01:08 | 55.04078 | -7.15712 | 30 ft | 3 kts | 93° |
| 2026-04-26 01:08 | 55.04067 | -7.15698 | 30 ft | 2 kts | 158° |
| 2026-04-26 01:08 | 55.04054 | -7.15692 | 30 ft | 2 kts | 167° |
| 2026-04-26 01:08 | 55.04041 | -7.15687 | 30 ft | 2 kts | 168° |
| 2026-04-26 01:09 | 55.04029 | -7.15683 | 30 ft | 2 kts | 168° |
| 2026-04-26 01:09 | 55.04023 | -7.15680 | 30 ft | 0 kts | 167° |